createdAt,value
2023-04-10T00:01:02.153Z,11.71
2023-04-10T00:03:30.342Z,11.73
2023-04-10T00:05:59.814Z,11.74
2023-04-10T00:08:27.860Z,11.75
2023-04-10T00:10:57.198Z,11.76
2023-04-10T00:13:25.387Z,11.78
2023-04-10T00:15:53.471Z,11.78
2023-04-10T00:18:21.557Z,11.75
2023-04-10T00:20:49.602Z,11.73
2023-04-10T00:23:19.101Z,11.72
2023-04-10T00:25:48.667Z,11.70
2023-04-10T00:28:17.432Z,11.67
2023-04-10T00:30:45.758Z,11.65
2023-04-10T00:33:14.068Z,11.63
2023-04-10T00:35:42.251Z,11.60
2023-04-10T00:38:10.404Z,11.59
2023-04-10T00:40:39.873Z,11.63
2023-04-10T00:43:07.934Z,11.63
2023-04-10T00:45:36.180Z,11.67
2023-04-10T00:48:04.805Z,11.70
2023-04-10T00:50:32.950Z,11.73
2023-04-10T00:53:01.027Z,11.73
2023-04-10T00:55:29.100Z,11.73
2023-04-10T00:57:59.296Z,11.77
2023-04-10T01:00:27.268Z,11.79
2023-04-10T01:02:56.044Z,11.80
2023-04-10T01:05:24.697Z,11.77
2023-04-10T01:07:59.886Z,11.75
2023-04-10T01:10:30.975Z,11.71
2023-04-10T01:13:07.930Z,11.70
2023-04-10T01:15:40.160Z,11.67
2023-04-10T01:18:11.280Z,11.66
2023-04-10T01:20:41.429Z,11.65
2023-04-10T01:23:30.928Z,11.67
2023-04-10T01:26:01.400Z,11.71
2023-04-10T01:28:45.140Z,11.73
2023-04-10T01:31:16.997Z,11.74
2023-04-10T01:33:47.993Z,11.75
2023-04-10T01:36:20.389Z,11.76
2023-04-10T01:38:49.909Z,11.78
2023-04-10T01:41:20.018Z,11.78
2023-04-10T01:43:50.883Z,11.77
2023-04-10T01:46:21.888Z,11.75
2023-04-10T01:48:51.110Z,11.73
2023-04-10T01:51:20.000Z,11.73
2023-04-10T01:53:49.378Z,11.73
2023-04-10T01:56:23.169Z,11.74
2023-04-10T01:58:52.132Z,11.74
2023-04-10T02:01:29.670Z,11.73
2023-04-10T02:03:59.135Z,11.70
2023-04-10T02:06:30.215Z,11.70
2023-04-10T02:09:00.464Z,11.70
2023-04-10T02:11:33.272Z,11.69
2023-04-10T02:14:02.125Z,11.69
2023-04-10T02:16:54.213Z,11.68
2023-04-10T02:19:24.046Z,11.67
2023-04-10T02:21:52.817Z,11.63
2023-04-10T02:24:21.892Z,11.59
2023-04-10T02:26:51.042Z,11.56
2023-04-10T02:29:19.431Z,11.52
2023-04-10T02:31:48.028Z,11.50
2023-04-10T02:34:17.504Z,11.53
2023-04-10T02:36:45.562Z,11.51
2023-04-10T02:39:14.123Z,11.53
2023-04-10T02:41:51.911Z,11.55
2023-04-10T02:44:20.040Z,11.56
2023-04-10T02:46:48.362Z,11.54
2023-04-10T02:49:18.123Z,11.55
2023-04-10T02:51:46.287Z,11.58
2023-04-10T02:54:14.434Z,11.58
2023-04-10T02:56:44.138Z,11.57
2023-04-10T02:59:12.286Z,11.56
2023-04-10T03:01:40.929Z,11.58
2023-04-10T03:04:09.386Z,11.59
2023-04-10T03:06:42.404Z,11.60
2023-04-10T03:09:10.510Z,11.59
2023-04-10T03:11:38.752Z,11.60
2023-04-10T03:14:09.868Z,11.59
2023-04-10T03:16:38.120Z,11.61
2023-04-10T03:19:06.333Z,11.59
2023-04-10T03:21:34.494Z,11.61
2023-04-10T03:24:04.054Z,11.58
2023-04-10T03:26:33.373Z,11.58
2023-04-10T03:29:01.894Z,11.62
2023-04-10T03:31:30.613Z,11.65
2023-04-10T03:34:01.752Z,11.69
2023-04-10T03:36:29.947Z,11.67
2023-04-10T03:38:58.242Z,11.68
2023-04-10T03:41:27.761Z,11.68
2023-04-10T03:43:56.604Z,11.69
2023-04-10T03:46:25.753Z,11.71
2023-04-10T03:48:54.362Z,11.67
2023-04-10T03:51:24.812Z,11.67
2023-04-10T03:53:53.644Z,11.69
2023-04-10T03:56:22.757Z,11.73
2023-04-10T03:58:52.574Z,11.79
2023-04-10T04:01:22.245Z,11.84
2023-04-10T04:04:16.912Z,11.89
2023-04-10T04:07:03.809Z,11.94
2023-04-10T04:09:48.709Z,11.95
2023-04-10T04:12:21.439Z,12.01
2023-04-10T04:15:07.102Z,12.03
2023-04-10T04:17:49.235Z,12.05
2023-04-10T04:20:38.310Z,12.09
2023-04-10T04:23:24.095Z,12.11
2023-04-10T04:26:10.864Z,12.14
2023-04-10T04:28:57.709Z,12.16
2023-04-10T04:32:05.416Z,12.18
2023-04-10T04:34:53.799Z,12.15
2023-04-10T04:37:50.187Z,12.13
2023-04-10T04:40:36.983Z,12.12
2023-04-10T04:43:25.219Z,12.12
2023-04-10T04:46:00.750Z,12.12
2023-04-10T04:48:41.752Z,12.13
2023-04-10T04:51:21.874Z,12.15
2023-04-10T04:54:03.524Z,12.19
2023-04-10T04:56:54.208Z,12.23
2023-04-10T04:59:54.181Z,12.28
2023-04-10T05:03:00.697Z,12.34
2023-04-10T05:05:38.077Z,12.39
2023-04-10T05:08:17.795Z,12.41
2023-04-10T05:11:01.148Z,12.44
2023-04-10T05:13:52.719Z,12.53
2023-04-10T05:16:53.113Z,12.59
2023-04-10T05:19:41.474Z,12.67
2023-04-10T05:22:20.742Z,12.73
2023-04-10T05:25:14.229Z,12.82
2023-04-10T05:28:01.464Z,12.90
2023-04-10T05:30:48.220Z,13.00
2023-04-10T05:33:35.109Z,13.07
2023-04-10T05:36:10.251Z,13.13
2023-04-10T05:39:02.933Z,13.22
2023-04-10T05:41:40.517Z,13.32
2023-04-10T05:44:28.960Z,13.45
2023-04-10T05:47:06.748Z,13.56
2023-04-10T05:49:49.783Z,13.67
2023-04-10T05:52:17.780Z,13.75
2023-04-10T05:55:22.544Z,13.86
2023-04-10T05:58:16.629Z,13.96
2023-04-10T06:01:14.840Z,14.05
2023-04-10T06:03:43.045Z,14.11
2023-04-10T06:06:12.290Z,14.14
2023-04-10T06:08:41.878Z,14.20
2023-04-10T06:11:11.704Z,14.22
2023-04-10T06:13:41.220Z,14.29
2023-04-10T06:16:10.086Z,14.29
2023-04-10T06:18:38.721Z,14.32
2023-04-10T06:21:07.172Z,14.38
2023-04-10T06:23:35.982Z,14.43
2023-04-10T06:26:04.662Z,14.45
2023-04-10T06:28:34.213Z,14.49
2023-04-10T06:31:04.809Z,14.46
2023-04-10T06:33:37.107Z,14.49
2023-04-10T06:36:08.340Z,14.51
2023-04-10T06:38:42.694Z,14.56
2023-04-10T06:41:11.864Z,14.57
2023-04-10T06:43:41.627Z,14.53
2023-04-10T06:46:09.877Z,14.47
2023-04-10T06:48:38.130Z,14.44
2023-04-10T06:51:06.434Z,14.44
2023-04-10T06:53:34.549Z,14.37
2023-04-10T06:56:03.577Z,14.39
2023-04-10T06:58:32.151Z,14.31
2023-04-10T07:01:04.632Z,14.37
2023-04-10T07:03:34.041Z,14.39
2023-04-10T07:06:03.407Z,14.44
2023-04-10T07:08:31.681Z,14.44
2023-04-10T07:10:59.712Z,14.47
2023-04-10T07:13:27.809Z,14.50
2023-04-10T07:15:56.814Z,14.46
2023-04-10T07:18:26.341Z,14.47
2023-04-10T07:20:54.419Z,14.51
2023-04-10T07:23:22.797Z,14.51
2023-04-10T07:25:51.824Z,14.51
2023-04-10T07:28:19.931Z,14.49
2023-04-10T07:30:48.015Z,14.51
2023-04-10T07:33:16.169Z,14.51
2023-04-10T07:35:45.813Z,14.51
2023-04-10T07:38:14.390Z,14.49
2023-04-10T07:40:42.580Z,14.47
2023-04-10T07:43:10.786Z,14.48
2023-04-10T07:45:38.976Z,14.48
2023-04-10T07:48:07.768Z,14.50
2023-04-10T07:50:36.281Z,14.50
2023-04-10T07:53:08.222Z,14.51
2023-04-10T07:55:39.195Z,14.52
2023-04-10T07:58:07.420Z,14.53
2023-04-10T08:00:35.607Z,14.54
2023-04-10T08:03:03.949Z,14.54
2023-04-10T08:05:32.236Z,14.52
2023-04-10T08:08:00.668Z,14.50
2023-04-10T08:10:30.189Z,14.52
2023-04-10T08:12:58.634Z,14.53
2023-04-10T08:15:26.758Z,14.55
2023-04-10T08:17:54.993Z,14.57
2023-04-10T08:20:23.117Z,14.59
2023-04-10T08:22:51.231Z,14.65
2023-04-10T08:25:19.342Z,14.71
2023-04-10T08:27:48.802Z,14.71
2023-04-10T08:30:16.898Z,14.65
2023-04-10T08:32:45.103Z,14.66
2023-04-10T08:35:13.197Z,14.70
2023-04-10T08:37:41.497Z,14.74
2023-04-10T08:40:10.090Z,14.82
2023-04-10T08:42:38.200Z,14.92
2023-04-10T08:45:08.455Z,15.07
2023-04-10T08:47:38.055Z,15.28
2023-04-10T08:50:08.165Z,15.45
2023-04-10T08:52:39.307Z,15.51
2023-04-10T08:55:09.346Z,15.49
2023-04-10T08:57:40.605Z,15.53
2023-04-10T09:02:44.631Z,15.62
2023-04-10T09:05:14.258Z,15.70
2023-04-10T09:07:42.495Z,15.76
2023-04-10T09:10:11.144Z,15.86
2023-04-10T09:12:46.714Z,15.95
2023-04-10T09:15:16.379Z,16.04
2023-04-10T09:17:57.849Z,16.12
2023-04-10T09:20:27.076Z,16.01
2023-04-10T09:22:55.173Z,15.97
2023-04-10T09:25:30.839Z,15.99
2023-04-10T09:28:02.894Z,16.02
2023-04-10T09:30:36.344Z,16.02
2023-04-10T09:33:04.964Z,16.11
2023-04-10T09:35:39.530Z,16.11
2023-04-10T09:38:18.142Z,16.13
2023-04-10T09:40:46.684Z,16.15
2023-04-10T09:43:24.688Z,16.16
2023-04-10T09:45:54.622Z,16.15
2023-04-10T09:48:23.333Z,16.28
2023-04-10T09:50:51.708Z,16.50
2023-04-10T09:53:20.454Z,16.74
2023-04-10T09:55:49.249Z,16.92
2023-04-10T09:58:18.040Z,17.05
2023-04-10T10:00:46.698Z,17.13
2023-04-10T10:03:17.388Z,17.21
2023-04-10T10:05:46.408Z,17.52
2023-04-10T10:08:15.115Z,17.85
2023-04-10T10:10:47.112Z,18.02
2023-04-10T10:13:18.310Z,17.94
2023-04-10T10:15:51.153Z,17.96
2023-04-10T10:18:23.956Z,17.95
2023-04-10T10:20:52.260Z,18.29
2023-04-10T10:23:20.817Z,18.50
2023-04-10T10:25:50.153Z,18.68
2023-04-10T10:28:19.433Z,18.73
2023-04-10T10:30:48.752Z,19.05
2023-04-10T10:33:17.098Z,19.45
2023-04-10T10:35:47.610Z,19.69
2023-04-10T10:38:16.595Z,20.40
2023-04-10T10:40:50.614Z,20.86
2023-04-10T10:43:24.578Z,21.38
2023-04-10T10:45:56.116Z,22.05
2023-04-10T10:48:24.266Z,22.56
2023-04-10T10:50:56.532Z,23.10
2023-04-10T10:53:37.422Z,23.88
2023-04-10T10:56:23.743Z,24.55
2023-04-10T10:58:52.900Z,24.98
2023-04-10T11:01:22.464Z,25.21
2023-04-10T11:03:51.150Z,25.53
2023-04-10T11:06:21.117Z,25.78
2023-04-10T11:08:50.221Z,26.17
2023-04-10T11:11:19.803Z,26.30
2023-04-10T11:14:06.668Z,26.16
2023-04-10T11:16:44.978Z,26.35
2023-04-10T11:19:15.830Z,26.56
2023-04-10T11:22:05.943Z,26.96
2023-04-10T11:24:52.720Z,27.16
2023-04-10T11:27:39.921Z,27.39
2023-04-10T11:30:23.002Z,27.60
2023-04-10T11:32:52.709Z,27.03
2023-04-10T11:35:21.413Z,26.53
2023-04-10T11:37:49.600Z,26.09
2023-04-10T11:40:17.629Z,25.75
2023-04-10T11:42:45.673Z,25.42
2023-04-10T11:45:26.730Z,25.58
2023-04-10T11:47:57.060Z,25.69
2023-04-10T11:50:25.190Z,25.53
2023-04-10T11:52:54.628Z,25.36
2023-04-10T11:55:37.900Z,24.93
2023-04-10T11:58:06.023Z,24.37
2023-04-10T12:00:34.105Z,24.01
2023-04-10T12:03:03.673Z,23.54
2023-04-10T12:05:46.263Z,23.08
2023-04-10T12:08:14.405Z,22.76
2023-04-10T12:10:48.525Z,22.49
2023-04-10T12:13:26.077Z,22.15
2023-04-10T12:15:54.520Z,21.69
2023-04-10T12:18:23.994Z,21.26
2023-04-10T12:20:56.302Z,21.03
2023-04-10T12:23:24.900Z,20.82
2023-04-10T12:25:53.398Z,20.69
2023-04-10T12:28:21.801Z,20.54
2023-04-10T12:30:50.589Z,20.40
2023-04-10T12:33:23.809Z,20.21
2023-04-10T12:35:51.901Z,20.01
2023-04-10T12:38:34.760Z,19.80
2023-04-10T12:41:03.275Z,19.65
2023-04-10T12:43:31.912Z,19.46
2023-04-10T12:46:00.111Z,19.26
2023-04-10T12:48:29.711Z,19.13
2023-04-10T12:50:57.956Z,18.98
2023-04-10T12:53:26.475Z,18.82
2023-04-10T12:55:59.455Z,18.65
2023-04-10T12:58:28.861Z,18.50
2023-04-10T13:00:57.636Z,18.35
2023-04-10T13:03:25.860Z,18.21
2023-04-10T13:05:55.953Z,18.07
2023-04-10T13:08:24.324Z,17.98
2023-04-10T13:10:52.617Z,17.84
2023-04-10T13:13:20.745Z,17.64
2023-04-10T13:15:49.204Z,17.50
2023-04-10T13:18:17.271Z,17.36
2023-04-10T13:20:45.325Z,17.28
2023-04-10T13:23:14.727Z,17.18
2023-04-10T13:25:43.116Z,17.12
2023-04-10T13:28:11.548Z,17.05
2023-04-10T13:30:40.141Z,16.99
2023-04-10T13:33:08.820Z,16.89
2023-04-10T13:35:37.125Z,16.82
2023-04-10T13:38:05.185Z,16.76
2023-04-10T13:40:34.709Z,16.72
2023-04-10T13:43:02.728Z,16.69
2023-04-10T13:45:30.933Z,16.65
2023-04-10T13:47:59.124Z,16.61
2023-04-10T13:50:27.257Z,16.53
2023-04-10T13:52:55.455Z,16.46
2023-04-10T13:55:23.525Z,16.43
2023-04-10T13:57:53.461Z,16.42
2023-04-10T14:00:22.175Z,16.38
2023-04-10T14:02:50.370Z,16.30
2023-04-10T14:05:18.688Z,16.20
2023-04-10T14:07:46.749Z,16.03
2023-04-10T14:10:14.832Z,15.86
2023-04-10T14:12:42.926Z,15.70
2023-04-10T14:15:12.706Z,15.64
2023-04-10T14:17:40.939Z,15.60
2023-04-10T14:20:11.453Z,15.57
2023-04-10T14:22:39.570Z,15.61
2023-04-10T14:25:13.099Z,15.67
2023-04-10T14:27:41.968Z,15.66
2023-04-10T14:30:10.611Z,15.66
2023-04-10T14:32:41.095Z,15.60
2023-04-10T14:35:09.639Z,15.46
2023-04-10T14:37:37.997Z,15.44
2023-04-10T14:40:06.631Z,15.40
2023-04-10T14:42:34.913Z,15.42
2023-04-10T14:45:03.190Z,15.46
2023-04-10T14:47:31.330Z,15.43
2023-04-10T14:50:00.839Z,15.40
2023-04-10T14:52:28.959Z,15.35
2023-04-10T14:54:57.014Z,15.30
2023-04-10T14:57:25.692Z,15.20
2023-04-10T14:59:53.934Z,15.08
2023-04-10T15:02:22.189Z,14.99
2023-04-10T15:04:50.724Z,15.00
2023-04-10T15:07:20.199Z,14.95
2023-04-10T15:09:48.711Z,14.90
2023-04-10T15:12:16.970Z,14.85
2023-04-10T15:14:45.002Z,14.82
2023-04-10T15:17:13.310Z,14.83
2023-04-10T15:19:41.545Z,14.86
2023-04-10T15:22:09.789Z,14.87
2023-04-10T15:24:50.009Z,14.92
2023-04-10T15:27:20.219Z,14.94
2023-04-10T15:29:48.284Z,14.91
2023-04-10T15:32:16.393Z,14.87
2023-04-10T15:34:45.282Z,14.87
2023-04-10T15:37:13.437Z,14.82
2023-04-10T15:39:42.978Z,14.74
2023-04-10T15:42:11.091Z,14.60
2023-04-10T15:44:39.162Z,14.57
2023-04-10T15:47:07.332Z,14.56
2023-04-10T15:49:38.450Z,14.56
2023-04-10T15:52:07.215Z,14.52
2023-04-10T15:54:35.697Z,14.43
2023-04-10T15:57:05.276Z,14.41
2023-04-10T15:59:34.395Z,14.36
2023-04-10T16:02:02.534Z,14.31
2023-04-10T16:04:31.412Z,14.27
2023-04-10T16:06:59.808Z,14.26
2023-04-10T16:09:28.164Z,14.17
2023-04-10T16:11:57.953Z,14.13
2023-04-10T16:14:27.501Z,14.04
2023-04-10T16:16:55.641Z,14.05
2023-04-10T16:19:24.042Z,14.03
2023-04-10T16:21:52.707Z,14.04
2023-04-10T16:24:20.767Z,14.06
2023-04-10T16:26:48.853Z,14.08
2023-04-10T16:29:19.896Z,14.06
2023-04-10T16:31:49.494Z,14.07
2023-04-10T16:34:17.748Z,14.04
2023-04-10T16:36:46.011Z,13.96
2023-04-10T16:39:14.200Z,13.91
2023-04-10T16:41:42.287Z,13.91
2023-04-10T16:44:10.485Z,13.87
2023-04-10T16:46:39.014Z,13.83
2023-04-10T16:49:08.599Z,13.84
2023-04-10T16:51:36.867Z,13.87
2023-04-10T16:54:05.190Z,13.85
2023-04-10T16:56:33.298Z,13.82
2023-04-10T16:59:01.388Z,13.80
2023-04-10T17:01:29.526Z,13.75
2023-04-10T17:03:57.682Z,13.73
2023-04-10T17:06:27.227Z,13.74
2023-04-10T17:08:55.467Z,13.69
2023-04-10T17:11:23.764Z,13.67
2023-04-10T17:13:51.932Z,13.61
2023-04-10T17:16:20.043Z,13.56
2023-04-10T17:18:48.148Z,13.53
2023-04-10T17:21:16.300Z,13.47
2023-04-10T17:23:45.906Z,13.38
2023-04-10T17:26:14.822Z,13.28
2023-04-10T17:28:44.930Z,13.30
2023-04-10T17:31:13.397Z,13.34
2023-04-10T17:33:43.147Z,13.35
2023-04-10T17:36:12.503Z,13.35
2023-04-10T17:38:41.258Z,13.37
2023-04-10T17:41:10.955Z,13.42
2023-04-10T17:43:39.019Z,13.39
2023-04-10T17:46:07.652Z,13.38
2023-04-10T17:48:36.267Z,13.35
2023-04-10T17:51:05.639Z,13.32
2023-04-10T17:53:33.695Z,13.30
2023-04-10T17:56:01.881Z,13.29
2023-04-10T17:58:31.658Z,13.28
2023-04-10T18:00:59.808Z,13.22
2023-04-10T18:03:27.962Z,13.21
2023-04-10T18:05:56.118Z,13.22
2023-04-10T18:08:24.262Z,13.25
2023-04-10T18:10:52.474Z,13.26
2023-04-10T18:13:20.488Z,13.28
2023-04-10T18:15:49.929Z,13.29
2023-04-10T18:18:18.013Z,13.29
2023-04-10T18:20:48.699Z,13.30
2023-04-10T18:23:16.807Z,13.32
2023-04-10T18:25:52.740Z,13.31
2023-04-10T18:28:20.992Z,13.30
2023-04-10T18:30:50.603Z,13.29
2023-04-10T18:33:23.915Z,13.30
2023-04-10T18:35:52.123Z,13.29
2023-04-10T18:38:20.584Z,13.29
2023-04-10T18:40:48.862Z,13.29
2023-04-10T18:43:16.905Z,13.26
2023-04-10T18:45:45.150Z,13.22
2023-04-10T18:48:14.718Z,13.17
2023-04-10T18:50:42.754Z,13.13
2023-04-10T18:53:11.177Z,13.11
2023-04-10T18:55:39.617Z,13.10
2023-04-10T18:58:07.936Z,13.07
2023-04-10T19:00:36.093Z,13.04
2023-04-10T19:03:04.378Z,13.03
2023-04-10T19:05:33.949Z,13.03
2023-04-10T19:08:04.612Z,13.01
2023-04-10T19:10:33.283Z,13.01
2023-04-10T19:13:01.324Z,12.99
2023-04-10T19:15:29.714Z,12.98
2023-04-10T19:17:57.873Z,12.98
2023-04-10T19:20:51.027Z,12.97
2023-04-10T19:23:15.456Z,12.98
2023-04-10T19:25:43.866Z,13.00
2023-04-10T19:28:12.013Z,12.99
2023-04-10T19:30:40.074Z,12.98
2023-04-10T19:33:08.133Z,13.00
2023-04-10T19:35:36.391Z,12.99
2023-04-10T19:38:04.502Z,12.99
2023-04-10T19:40:34.010Z,12.97
2023-04-10T19:43:02.657Z,12.97
2023-04-10T19:45:32.576Z,12.96
2023-04-10T19:48:01.172Z,12.94
2023-04-10T19:50:29.684Z,12.90
2023-04-10T19:52:58.136Z,12.88
2023-04-10T19:55:26.614Z,12.85
2023-04-10T19:57:56.204Z,12.84
2023-04-10T20:00:24.324Z,12.84
2023-04-10T20:02:52.770Z,12.82
2023-04-10T20:05:21.191Z,12.82
2023-04-10T20:07:49.488Z,12.81
2023-04-10T20:10:17.608Z,12.79
2023-04-10T20:12:45.733Z,12.79
2023-04-10T20:15:15.558Z,12.78
2023-04-10T20:17:43.726Z,12.77
2023-04-10T20:20:13.573Z,12.76
2023-04-10T20:22:41.713Z,12.76
2023-04-10T20:25:10.141Z,12.76
2023-04-10T20:27:38.477Z,12.75
2023-04-10T20:30:07.522Z,12.75
2023-04-10T20:32:37.108Z,12.75
2023-04-10T20:35:05.717Z,12.76
2023-04-10T20:37:33.816Z,12.76
2023-04-10T20:40:01.883Z,12.76
2023-04-10T20:42:29.978Z,12.74
2023-04-10T20:44:58.014Z,12.73
2023-04-10T20:47:26.130Z,12.71
2023-04-10T20:49:55.631Z,12.70
2023-04-10T20:52:23.749Z,12.70
2023-04-10T20:54:51.905Z,12.65
2023-04-10T20:57:19.958Z,12.62
2023-04-10T20:59:48.070Z,12.59
2023-04-10T21:02:18.162Z,12.56
2023-04-10T21:04:46.459Z,12.53
2023-04-10T21:07:15.928Z,12.52
2023-04-10T21:09:44.051Z,12.49
2023-04-10T21:12:12.092Z,12.49
2023-04-10T21:14:40.208Z,12.51
2023-04-10T21:17:08.250Z,12.53
2023-04-10T21:19:37.278Z,12.56
2023-04-10T21:22:05.309Z,12.57
2023-04-10T21:24:34.850Z,12.59
2023-04-10T21:27:03.079Z,12.59
2023-04-10T21:29:31.222Z,12.60
2023-04-10T21:31:59.464Z,12.60
2023-04-10T21:34:27.552Z,12.60
2023-04-10T21:36:55.655Z,12.61
2023-04-10T21:39:23.862Z,12.61
2023-04-10T21:41:53.339Z,12.61
2023-04-10T21:44:21.532Z,12.60
2023-04-10T21:46:49.621Z,12.57
2023-04-10T21:49:17.616Z,12.55
2023-04-10T21:51:45.749Z,12.53
2023-04-10T21:54:13.820Z,12.51
2023-04-10T21:56:42.040Z,12.49
2023-04-10T21:59:11.657Z,12.46
2023-04-10T22:01:41.743Z,12.44
2023-04-10T22:04:10.113Z,12.38
2023-04-10T22:06:38.340Z,12.38
2023-04-10T22:09:06.450Z,12.35
2023-04-10T22:11:34.899Z,12.32
2023-04-10T22:14:15.708Z,12.31
2023-04-10T22:16:46.947Z,12.30
2023-04-10T22:19:15.135Z,12.25
2023-04-10T22:21:43.294Z,12.26
2023-04-10T22:24:11.441Z,12.25
2023-04-10T22:26:42.145Z,12.26
2023-04-10T22:29:10.360Z,12.29
2023-04-10T22:31:38.423Z,12.31
2023-04-10T22:34:08.521Z,12.31
2023-04-10T22:36:36.964Z,12.30
2023-04-10T22:39:05.091Z,12.33
2023-04-10T22:41:33.560Z,12.33
2023-04-10T22:44:01.640Z,12.35
2023-04-10T22:46:29.827Z,12.32
2023-04-10T22:48:58.012Z,12.31
2023-04-10T22:51:28.096Z,12.30
2023-04-10T22:53:56.254Z,12.26
2023-04-10T22:56:26.718Z,12.24
2023-04-10T22:58:55.174Z,12.21
2023-04-10T23:01:23.466Z,12.17
2023-04-10T23:03:54.156Z,12.13
2023-04-10T23:06:22.394Z,12.14
2023-04-10T23:08:51.892Z,12.12
2023-04-10T23:11:19.929Z,12.09
2023-04-10T23:13:48.888Z,12.08
2023-04-10T23:16:17.146Z,12.05
2023-04-10T23:18:45.377Z,12.01
2023-04-10T23:21:13.457Z,12.01
2023-04-10T23:23:41.530Z,11.98
2023-04-10T23:26:12.529Z,11.97
2023-04-10T23:28:40.637Z,11.91
2023-04-10T23:31:09.512Z,11.93
2023-04-10T23:33:37.711Z,11.90
2023-04-10T23:36:06.192Z,11.87
2023-04-10T23:38:34.304Z,11.88
2023-04-10T23:41:03.086Z,11.88
2023-04-10T23:43:32.628Z,11.87
2023-04-10T23:46:00.742Z,11.86
2023-04-10T23:48:28.874Z,11.87
2023-04-10T23:51:03.597Z,11.87
2023-04-10T23:53:31.719Z,11.90
2023-04-10T23:55:59.949Z,11.92
2023-04-10T23:58:28.068Z,11.94
